Portada
METAR-TAF:

METAR-TAF

Aeroports :

Anvers, Bèlgica

latitud: 51-12N, longitud: 004-28E, altitud: 12 m

Observació

L'informe es va fer fa 40 minuts, a les 14:50 UTC
Vent 14 kt del Sud
Temperatura 7°C
Humitat 61%
Pressió 1019 hPa
Visibilitat 10 km o més
sense núvols per sota de 1500 mi sense presència de cumulonimbus.

METAR: EBAW 101450Z 19014KT CAVOK 07/00 Q1019 TEMPO 19016G27KT

Hora: 16:30 (15:30 UTC)

Pronòstic

L'informe es va fer fa 1 hora i 14 minuts, a les 14:16 UTC
Pronòstic vàlid del 10 a les 15 UTC al 10 a les 24 UTC
Vent 16 kt del Sud amb ràfegues de 28 kt
Visibilitat 10 km o més
sense núvols per sota de 1500 mi sense presència de cumulonimbus.
Evolucionant progressivament
l' 10 a les 23 UTC al 11 a les 02 UTC
Núvols disperses a una alçada de 800 ft
Cel ennuvolat a una alçada de 1200 ft

TAF: EBAW 101416Z 1015/1024 19016G28KT CAVOK BECMG 1023/1102 SCT008 BKN012

Observacions i pronòstics meteorològics de més de 4000 aeroports (METAR i TAF).

Les estacions disponibles són els punts grocs i vermells al mapa.

Posi el ratolí al punt desitjat per veure el nom de l'estació.

Feu clic per veure les observacions i els pronòstics meteorològics.

Per canviar el mapa: feu clic els botons verds amb una creu de color negre per apropar; al botó verd amb un guió per allunyar la imatge; o en les fletxes verdes per a mapes adjacents.


METAR-TAF: